Time;durP1;ratioP1;P1;durP2;ratioP2;P2;SDS_P1;SDS_P2;PMS_P1;PMS_P2;Temp;Humidity;BMP_temperature;BMP_pressure;BME280_temperature;BME280_humidity;BME280_pressure;Samples;Min_cycle;Max_cycle;Signal;HPM_P1;HPM_P2
2023/08/05 00:00:41;;;;;;;;;6.00;4.00;;;;;19.26;59.31;101415.19;5037793;28;45284;-72
2023/08/05 00:03:06;;;;;;;;;7.00;6.00;;;;;19.27;59.49;101431.16;5019793;28;45388;-72
2023/08/05 00:05:32;;;;;;;;;9.33;6.33;;;;;19.07;58.97;101412.00;5037107;28;46651;-71
2023/08/05 00:07:57;;;;;;;;;9.00;8.00;;;;;19.07;59.39;101408.44;5036624;28;55104;-71
2023/08/05 00:10:22;;;;;;;;;6.00;6.00;;;;;19.13;59.27;101432.81;5037399;28;45325;-71
2023/08/05 00:12:48;;;;;;;;;7.67;7.67;;;;;19.13;59.27;101427.41;5019248;28;45311;-73
2023/08/05 00:15:13;;;;;;;;;4.33;4.33;;;;;19.09;59.41;101426.13;5035800;28;46748;-71
2023/08/05 00:17:39;;;;;;;;;9.00;9.00;;;;;19.17;59.65;101432.44;5036981;28;45392;-71
2023/08/05 00:20:05;;;;;;;;;9.67;6.00;;;;;19.11;59.18;101428.63;5019416;28;45296;-71
2023/08/05 00:22:30;;;;;;;;;6.00;6.00;;;;;19.06;59.58;101418.41;5037399;28;45525;-71
2023/08/05 00:24:55;;;;;;;;;6.33;6.33;;;;;19.11;59.63;101434.84;5036649;28;58934;-71
2023/08/05 00:27:21;;;;;;;;;5.00;5.00;;;;;18.95;59.53;101399.13;5037073;28;45441;-71
2023/08/05 00:29:46;;;;;;;;;7.00;7.00;;;;;18.99;59.71;101412.03;5036835;28;45182;-72
2023/08/05 00:32:12;;;;;;;;;8.67;7.33;;;;;19.07;59.94;101427.31;5037099;28;45196;-71
2023/08/05 00:34:37;;;;;;;;;5.00;5.00;;;;;19.05;59.88;101427.50;5035534;28;48201;-71
2023/08/05 00:37:03;;;;;;;;;6.67;5.00;;;;;19.05;59.78;101418.59;5037121;28;45324;-72
2023/08/05 00:39:28;;;;;;;;;4.33;4.33;;;;;18.61;59.97;101340.28;5037172;28;45459;-71
2023/08/05 00:41:54;;;;;;;;;5.25;4.75;;;;;18.94;59.93;101411.75;5037200;28;45404;-72
2023/08/05 00:44:19;;;;;;;;;6.00;4.25;;;;;18.88;60.62;101401.72;5036429;28;45574;-71
2023/08/05 00:46:44;;;;;;;;;6.00;6.00;;;;;18.88;60.13;101396.34;5036703;28;45514;-72
2023/08/05 00:49:11;;;;;;;;;7.25;6.00;;;;;18.90;60.15;101399.69;5036735;28;45338;-71
2023/08/05 00:51:38;;;;;;;;;7.00;6.00;;;;;18.81;60.10;101380.03;5037205;28;45260;-71
2023/08/05 00:54:03;;;;;;;;;7.67;7.67;;;;;18.73;60.30;101365.81;5036515;28;46727;-71
2023/08/05 00:56:29;;;;;;;;;6.75;5.75;;;;;18.88;60.27;101382.03;5037016;28;45213;-72
2023/08/05 00:58:54;;;;;;;;;5.67;5.67;;;;;18.89;60.22;101379.16;5036857;28;45229;-71
2023/08/05 01:01:20;;;;;;;;;7.00;7.00;;;;;18.77;60.36;101361.75;5039097;28;45342;-71
2023/08/05 01:03:45;;;;;;;;;7.00;6.33;;;;;18.31;60.38;101293.63;5021994;28;47815;-70
2023/08/05 01:06:11;;;;;;;;;5.00;5.00;;;;;18.88;60.72;101390.13;5040387;28;45511;-72
2023/08/05 01:08:37;;;;;;;;;4.50;4.50;;;;;18.83;60.92;101414.91;5040384;28;45277;-71
2023/08/05 01:11:03;;;;;;;;;8.00;7.00;;;;;18.82;60.81;101419.47;5040173;28;45341;-71
2023/08/05 01:13:31;;;;;;;;;5.00;5.00;;;;;18.61;61.25;101399.56;5039377;28;46467;-71
2023/08/05 01:15:57;;;;;;;;;6.75;6.00;;;;;18.71;61.07;101416.34;5039772;28;45448;-72
2023/08/05 01:18:24;;;;;;;;;6.33;6.33;;;;;18.71;61.27;101421.72;5039920;28;45805;-72
2023/08/05 01:20:53;;;;;;;;;6.33;4.67;;;;;18.70;61.29;101412.81;5040304;28;45377;-72
2023/08/05 01:23:27;;;;;;;;;5.25;5.25;;;;;18.69;61.06;101413.84;5021995;28;45989;-72
2023/08/05 01:25:53;;;;;;;;;7.00;6.00;;;;;18.61;61.40;101386.09;5039737;28;45237;-72
2023/08/05 01:28:19;;;;;;;;;6.00;5.00;;;;;18.68;61.11;101390.63;5039595;28;45492;-72
2023/08/05 01:30:45;;;;;;;;;5.00;5.00;;;;;18.64;61.40;101369.63;5022085;28;45345;-72
2023/08/05 01:33:12;;;;;;;;;6.00;5.00;;;;;18.64;61.36;101380.41;5038346;28;47823;-72
2023/08/05 01:35:38;;;;;;;;;5.00;5.00;;;;;18.63;61.20;101374.16;5021505;28;45515;-71
2023/08/05 01:38:06;;;;;;;;;3.75;3.75;;;;;18.57;61.46;101374.00;5039717;28;45307;-71
2023/08/05 01:40:32;;;;;;;;;6.50;5.00;;;;;18.61;61.51;101383.38;5038568;28;46016;-72
2023/08/05 01:42:58;;;;;;;;;6.75;6.75;;;;;18.52;61.39;101377.25;5039818;28;46006;-71
2023/08/05 01:45:24;;;;;;;;;8.25;6.75;;;;;18.61;61.50;101392.31;5039723;28;45498;-71
2023/08/05 01:47:50;;;;;;;;;6.00;4.50;;;;;18.60;61.23;101382.56;5039850;28;45284;-71
2023/08/05 01:50:15;;;;;;;;;5.75;4.25;;;;;18.58;61.12;101383.75;5021757;28;45623;-71
2023/08/05 01:52:41;;;;;;;;;4.00;4.00;;;;;18.48;61.36;101379.47;5039429;28;45590;-70
2023/08/05 01:55:06;;;;;;;;;4.67;4.67;;;;;18.58;60.83;101408.00;5039197;28;45345;-72
2023/08/05 01:57:31;;;;;;;;;5.00;4.00;;;;;18.49;61.22;101401.84;5039535;28;45308;-72
2023/08/05 01:59:57;;;;;;;;;6.00;5.00;;;;;18.44;60.65;101405.09;5039342;28;45270;-73
2023/08/05 02:02:22;;;;;;;;;5.00;4.00;;;;;18.46;60.75;101408.44;5039062;28;45879;-71
2023/08/05 02:04:47;;;;;;;;;6.75;5.00;;;;;18.54;60.70;101443.38;5039162;28;45349;-71
2023/08/05 02:07:13;;;;;;;;;7.00;6.67;;;;;18.42;61.01;101422.41;5039131;28;50629;-71
2023/08/05 02:09:38;;;;;;;;;5.67;3.00;;;;;18.48;61.06;101419.84;5038567;28;52934;-72
2023/08/05 02:12:04;;;;;;;;;5.00;3.00;;;;;18.48;61.35;101409.09;5037713;28;45222;-72
2023/08/05 02:14:29;;;;;;;;;5.33;5.33;;;;;18.31;61.27;101372.53;5038323;28;45565;-72
2023/08/05 02:16:54;;;;;;;;;4.00;3.67;;;;;18.53;61.10;101398.59;5039091;28;45261;-71
2023/08/05 02:19:20;;;;;;;;;8.25;6.25;;;;;18.52;61.25;101385.31;5039300;28;45585;-70
2023/08/05 02:21:45;;;;;;;;;7.00;4.00;;;;;18.49;61.27;101369.53;5038771;28;51521;-72
2023/08/05 02:24:11;;;;;;;;;6.00;5.00;;;;;18.48;60.88;101357.94;5036970;28;61925;-71
2023/08/05 02:26:37;;;;;;;;;4.00;4.00;;;;;18.46;61.43;101359.97;5038986;28;45523;-72
2023/08/05 02:29:02;;;;;;;;;6.00;6.00;;;;;18.32;61.42;101325.75;5038797;28;45442;-73
2023/08/05 02:31:28;;;;;;;;;7.00;7.00;;;;;18.44;61.38;101335.09;5039086;28;46415;-72
2023/08/05 02:33:53;;;;;;;;;8.00;6.67;;;;;18.43;61.44;101332.56;5038691;28;45487;-71
2023/08/05 02:36:18;;;;;;;;;5.50;4.25;;;;;18.34;61.50;101323.69;5038682;28;45241;-71
2023/08/05 02:38:44;;;;;;;;;5.00;5.00;;;;;18.29;61.64;101312.66;5039134;28;45404;-70
2023/08/05 02:41:09;;;;;;;;;4.00;4.00;;;;;18.47;61.66;101325.81;5038617;28;45736;-72
2023/08/05 02:43:35;;;;;;;;;5.67;5.00;;;;;18.42;61.33;101309.31;5038316;28;45335;-72
2023/08/05 02:46:00;;;;;;;;;4.50;4.50;;;;;18.40;61.42;101289.84;5038858;28;45490;-71
2023/08/05 02:48:26;;;;;;;;;4.00;4.00;;;;;18.38;61.37;101297.25;5038957;28;45385;-71
2023/08/05 02:50:53;;;;;;;;;5.50;4.00;;;;;18.41;61.44;101286.13;5038432;28;46310;-71
2023/08/05 02:53:19;;;;;;;;;5.00;5.00;;;;;18.36;61.73;101300.13;5038503;28;45338;-72
2023/08/05 02:55:45;;;;;;;;;3.50;3.00;;;;;17.91;61.63;101206.84;5038563;28;45431;-71
2023/08/05 02:58:10;;;;;;;;;3.25;3.25;;;;;18.37;62.03;101280.25;5038203;28;45224;-71
2023/08/05 03:00:35;;;;;;;;;5.00;4.00;;;;;18.42;61.70;101288.66;5038305;28;45636;-71
2023/08/05 03:03:02;;;;;;;;;2.75;2.75;;;;;18.31;61.80;101283.69;5020429;28;45295;-70
2023/08/05 03:05:28;;;;;;;;;4.00;4.00;;;;;18.33;62.07;101278.13;5038536;28;45550;-72
2023/08/05 03:07:53;;;;;;;;;5.00;3.00;;;;;18.37;62.15;101285.66;5038374;28;45385;-71
2023/08/05 03:10:19;;;;;;;;;6.00;4.67;;;;;18.38;62.44;101294.56;5038089;28;45736;-71
2023/08/05 03:12:44;;;;;;;;;6.00;4.33;;;;;18.31;61.75;101286.38;5036664;28;45413;-72
2023/08/05 03:15:09;;;;;;;;;5.00;5.00;;;;;18.35;62.33;101300.31;5037833;28;45500;-72
2023/08/05 03:17:35;;;;;;;;;4.33;3.67;;;;;17.75;62.46;101193.50;5038460;28;45664;-71
2023/08/05 03:20:05;;;;;;;;;5.00;3.25;;;;;18.35;62.49;101297.63;5019797;28;45922;-71
2023/08/05 03:22:31;;;;;;;;;5.25;3.00;;;;;18.30;62.11;101282.03;5020093;28;45240;-71
2023/08/05 03:24:56;;;;;;;;;4.00;4.00;;;;;18.43;61.98;101293.03;5037519;28;45555;-71
2023/08/05 03:27:21;;;;;;;;;3.00;3.00;;;;;18.39;62.03;101289.00;5038257;28;45290;-72
2023/08/05 03:29:47;;;;;;;;;5.25;2.25;;;;;18.25;62.10;101265.59;5037448;28;47210;-71
2023/08/05 03:32:12;;;;;;;;;4.00;4.00;;;;;18.30;62.26;101284.72;5037834;28;45251;-73
2023/08/05 03:34:37;;;;;;;;;3.00;3.00;;;;;18.36;62.29;101294.75;5037583;28;50574;-72
2023/08/05 03:37:03;;;;;;;;;3.00;3.00;;;;;17.85;62.06;101205.72;5038184;28;45523;-73
2023/08/05 03:39:29;;;;;;;;;3.50;2.50;;;;;17.60;62.33;101169.22;5037689;28;46204;-71
2023/08/05 03:41:54;;;;;;;;;3.50;3.00;;;;;18.31;62.34;101272.94;5037579;28;45518;-73
2023/08/05 03:44:19;;;;;;;;;3.00;3.00;;;;;18.19;62.66;101263.59;5037614;28;45477;-70
2023/08/05 03:46:45;;;;;;;;;4.75;3.50;;;;;18.31;62.55;101283.69;5037761;28;45222;-72
2023/08/05 03:49:10;;;;;;;;;5.25;3.00;;;;;18.26;62.91;101288.78;5037038;28;47011;-72
2023/08/05 03:51:35;;;;;;;;;4.75;3.50;;;;;18.24;62.98;101274.69;5037633;28;45396;-72
2023/08/05 03:54:01;;;;;;;;;4.00;4.00;;;;;18.26;62.92;101282.56;5019741;28;45457;-71
2023/08/05 03:56:27;;;;;;;;;3.00;3.00;;;;;18.09;62.82;101254.94;5037679;28;45599;-72
2023/08/05 03:58:56;;;;;;;;;5.00;4.00;;;;;18.08;62.71;101248.72;5036978;28;46302;-72
2023/08/05 04:01:22;;;;;;;;;3.25;2.00;;;;;18.17;62.86;101244.09;5037173;28;45209;-72
2023/08/05 04:03:51;;;;;;;;;4.00;4.00;;;;;18.24;62.47;101253.16;5019454;28;45377;-72
2023/08/05 04:06:19;;;;;;;;;3.67;3.67;;;;;18.07;62.37;101220.16;5037155;28;45408;-71
2023/08/05 04:08:44;;;;;;;;;7.67;4.00;;;;;18.28;62.61;101243.69;5036768;28;46011;-71
2023/08/05 04:11:10;;;;;;;;;5.00;5.00;;;;;18.25;62.67;101227.91;5035792;28;45325;-71
2023/08/05 04:13:39;;;;;;;;;4.00;3.00;;;;;18.12;62.72;101198.91;5018681;28;45256;-71
2023/08/05 04:16:04;;;;;;;;;3.67;3.67;;;;;18.25;62.45;101230.59;5037214;28;45372;-72
2023/08/05 04:18:34;;;;;;;;;3.00;3.00;;;;;18.21;62.32;101219.34;5036734;28;46867;-71
2023/08/05 04:21:00;;;;;;;;;4.00;3.75;;;;;18.00;62.59;101170.75;5036791;28;45292;-72
2023/08/05 04:23:28;;;;;;;;;3.33;3.33;;;;;18.12;62.36;101184.63;5037016;28;45368;-71
2023/08/05 04:25:54;;;;;;;;;3.50;3.50;;;;;18.17;62.31;101192.97;5037302;28;45533;-71
2023/08/05 04:28:19;;;;;;;;;3.00;2.75;;;;;18.12;62.51;101188.16;5036708;28;46409;-72
2023/08/05 04:30:44;;;;;;;;;5.00;4.00;;;;;18.05;62.59;101175.63;5036936;28;45256;-72
2023/08/05 04:33:11;;;;;;;;;6.00;6.00;;;;;18.26;62.23;101215.28;5036791;28;45627;-71
2023/08/05 04:35:36;;;;;;;;;6.00;4.00;;;;;18.14;62.30;101193.34;5036123;28;45319;-72
2023/08/05 04:38:01;;;;;;;;;3.50;3.50;;;;;18.15;62.29;101205.78;5036672;28;46766;-70
2023/08/05 04:40:27;;;;;;;;;6.00;5.00;;;;;18.24;62.19;101227.06;5036684;28;45440;-71
2023/08/05 04:42:52;;;;;;;;;5.00;2.50;;;;;18.19;62.16;101213.31;5036487;28;45399;-72
2023/08/05 04:45:17;;;;;;;;;4.00;4.00;;;;;17.92;62.05;101165.47;5037062;28;45533;-71
2023/08/05 04:47:43;;;;;;;;;4.33;4.33;;;;;18.12;62.35;101206.16;5036723;28;46411;-72
2023/08/05 04:50:08;;;;;;;;;4.00;4.00;;;;;18.23;62.28;101229.94;5018828;28;45309;-73
2023/08/05 04:52:34;;;;;;;;;5.00;4.00;;;;;18.15;62.23;101216.53;5035340;28;45314;-71
2023/08/05 04:55:09;;;;;;;;;3.25;2.25;;;;;18.19;62.18;101221.38;5036693;28;45326;-72
2023/08/05 04:57:35;;;;;;;;;6.00;4.50;;;;;17.99;61.91;101190.59;5036330;28;45778;-72
2023/08/05 05:00:00;;;;;;;;;3.00;3.00;;;;;18.11;61.84;101205.31;5036202;28;45515;-72
2023/08/05 05:02:26;;;;;;;;;4.00;3.00;;;;;18.08;62.37;101207.53;5036329;28;45230;-71
2023/08/05 05:04:51;;;;;;;;;3.00;3.00;;;;;18.11;62.22;101205.31;5036882;28;45459;-71
2023/08/05 05:07:16;;;;;;;;;5.00;5.00;;;;;18.15;62.52;101206.63;5035830;28;59000;-71
2023/08/05 05:09:41;;;;;;;;;3.33;3.33;;;;;18.06;62.26;101191.56;5036405;28;45425;-72
2023/08/05 05:12:08;;;;;;;;;3.00;2.67;;;;;17.65;62.33;101121.13;5036034;28;54080;-72
2023/08/05 05:14:33;;;;;;;;;4.00;4.00;;;;;17.78;62.49;101140.19;5036139;28;45288;-72
2023/08/05 05:16:58;;;;;;;;;3.00;3.00;;;;;18.00;62.23;101172.63;5034708;28;46351;-72
2023/08/05 05:19:24;;;;;;;;;3.67;3.67;;;;;17.98;62.60;101172.78;5036325;28;45511;-71
2023/08/05 05:21:49;;;;;;;;;3.33;3.33;;;;;18.02;62.63;101187.59;5035867;28;51664;-71
2023/08/05 05:24:15;;;;;;;;;4.33;3.00;;;;;17.97;62.99;101172.97;5036310;28;46072;-72
2023/08/05 05:26:40;;;;;;;;;4.00;3.33;;;;;17.91;62.67;101161.09;5036072;28;46543;-71
2023/08/05 05:29:05;;;;;;;;;4.00;4.00;;;;;18.04;62.61;101190.09;5035762;28;45326;-71
2023/08/05 05:31:31;;;;;;;;;6.33;3.00;;;;;17.65;62.59;101096.94;5036282;28;45728;-71
2023/08/05 05:33:56;;;;;;;;;5.67;4.00;;;;;18.06;62.46;101167.38;5036423;28;45309;-72
2023/08/05 05:36:21;;;;;;;;;6.67;5.67;;;;;17.59;62.58;101092.25;5035655;28;45856;-71
2023/08/05 05:38:47;;;;;;;;;4.00;4.00;;;;;18.04;62.92;101166.72;5036165;28;45356;-71
2023/08/05 05:41:12;;;;;;;;;5.00;5.00;;;;;17.87;62.91;101135.59;5036059;28;45207;-71
2023/08/05 05:43:38;;;;;;;;;5.50;3.50;;;;;18.05;62.56;101151.41;5035986;28;45461;-71
2023/08/05 05:46:04;;;;;;;;;4.00;2.50;;;;;18.16;62.82;101157.16;5036034;28;46425;-74
2023/08/05 05:48:29;;;;;;;;;4.33;4.33;;;;;18.18;62.60;101156.97;5039290;28;45374;-71
2023/08/05 05:50:55;;;;;;;;;4.00;4.00;;;;;18.23;62.33;101149.19;5038532;28;55512;-71
2023/08/05 05:53:21;;;;;;;;;3.00;3.00;;;;;18.24;62.42;101146.31;5039449;28;45370;-70
2023/08/05 05:55:50;;;;;;;;;5.33;4.33;;;;;18.35;61.92;101147.72;5037729;28;48038;-70
2023/08/05 05:58:15;;;;;;;;;5.67;4.67;;;;;18.39;62.10;101143.63;5038677;28;45333;-72
2023/08/05 06:00:41;;;;;;;;;5.00;3.67;;;;;18.41;61.47;101141.56;5039209;28;45377;-71
2023/08/05 06:03:06;;;;;;;;;2.00;2.00;;;;;18.27;61.60;101104.75;5039634;28;45418;-72
2023/08/05 06:05:32;;;;;;;;;3.00;3.00;;;;;18.42;61.39;101123.56;5020968;28;47542;-72
2023/08/05 06:07:57;;;;;;;;;4.00;4.00;;;;;18.34;61.89;101113.75;5038837;28;45429;-72
2023/08/05 06:10:23;;;;;;;;;3.00;3.00;;;;;18.26;61.85;101095.00;5039126;28;45432;-71
2023/08/05 06:12:48;;;;;;;;;4.67;3.00;;;;;18.38;61.93;101108.81;5038893;28;45279;-72
2023/08/05 06:15:13;;;;;;;;;5.25;3.00;;;;;18.42;62.07;101100.19;5038387;28;46680;-71
2023/08/05 06:17:39;;;;;;;;;5.75;5.75;;;;;18.58;61.90;101114.47;5038867;28;45233;-71
2023/08/05 06:20:06;;;;;;;;;3.00;3.00;;;;;18.53;61.77;101088.94;5038752;28;45527;-72
2023/08/05 06:22:31;;;;;;;;;5.25;4.00;;;;;18.84;61.25;101096.00;5039338;28;45285;-72
2023/08/05 06:24:57;;;;;;;;;6.25;5.25;;;;;19.10;60.38;101085.50;5020631;28;47130;-71
2023/08/05 06:27:22;;;;;;;;;3.00;3.00;;;;;19.22;59.79;101107.41;5038806;28;45448;-72
2023/08/05 06:29:47;;;;;;;;;4.75;3.50;;;;;19.01;59.87;101066.94;5038404;28;45307;-72
2023/08/05 06:32:12;;;;;;;;;5.00;4.75;;;;;19.43;59.56;101110.09;5039111;28;45475;-72
2023/08/05 06:34:38;;;;;;;;;9.25;7.00;;;;;19.59;59.25;101102.78;5020431;28;50453;-72
2023/08/05 06:37:04;;;;;;;;;3.50;3.50;;;;;19.52;59.09;101043.38;5038515;28;45444;-71
2023/08/05 06:39:30;;;;;;;;;3.50;3.50;;;;;20.00;57.84;101082.13;5038870;28;45471;-72
2023/08/05 06:41:55;;;;;;;;;4.25;3.25;;;;;19.99;57.73;101039.16;5038622;28;45632;-70
2023/08/05 06:44:21;;;;;;;;;5.50;4.00;;;;;20.25;56.62;101060.94;5038230;28;45863;-71
2023/08/05 06:46:46;;;;;;;;;4.00;4.00;;;;;20.42;56.40;101080.34;5038410;28;45295;-71
2023/08/05 06:49:11;;;;;;;;;3.00;3.00;;;;;20.42;56.36;101068.69;5038475;28;45302;-71
2023/08/05 06:51:37;;;;;;;;;4.25;3.25;;;;;20.58;56.39;101087.28;5037114;28;45306;-72
2023/08/05 06:54:03;;;;;;;;;4.00;4.00;;;;;20.65;55.94;101077.34;5037932;28;46507;-72
2023/08/05 06:56:28;;;;;;;;;3.50;3.50;;;;;20.73;55.78;101079.84;5038115;28;45373;-71
2023/08/05 06:58:54;;;;;;;;;2.75;2.75;;;;;20.65;55.06;101055.72;5037285;28;45344;-72
2023/08/05 07:01:19;;;;;;;;;3.75;2.75;;;;;20.70;54.85;101066.75;5038415;28;45302;-73
2023/08/05 07:03:44;;;;;;;;;3.50;3.00;;;;;20.34;54.81;101013.81;5038126;28;46168;-71
2023/08/05 07:06:10;;;;;;;;;3.00;2.00;;;;;20.59;54.97;101051.13;5038142;28;45336;-72
2023/08/05 07:08:35;;;;;;;;;3.00;3.00;;;;;20.63;55.22;101072.16;5038193;28;45517;-73
2023/08/05 07:11:02;;;;;;;;;4.00;2.00;;;;;20.59;54.85;101051.94;5037968;28;45622;-73
2023/08/05 07:13:27;;;;;;;;;0.00;0.00;;;;;20.68;54.60;101058.03;5037298;28;46442;-72
2023/08/05 07:16:00;;;;;;;;;2.25;2.25;;;;;20.56;54.78;101032.63;5037799;28;45483;-71
2023/08/05 07:18:26;;;;;;;;;3.25;3.25;;;;;20.76;54.74;101052.44;5019990;28;45703;-72
2023/08/05 07:20:52;;;;;;;;;1.75;1.00;;;;;20.84;54.22;101059.53;5038129;28;45407;-71
2023/08/05 07:23:18;;;;;;;;;1.75;1.00;;;;;20.45;53.73;100971.09;5037829;28;46451;-71
2023/08/05 07:25:43;;;;;;;;;2.00;2.00;;;;;20.89;52.93;101055.19;5037745;28;45554;-71
2023/08/05 07:28:08;;;;;;;;;1.25;1.00;;;;;20.87;53.06;101051.03;5037492;28;45202;-70
2023/08/05 07:30:34;;;;;;;;;4.00;1.00;;;;;20.90;52.91;101058.72;5037881;28;45510;-71
2023/08/05 07:32:59;;;;;;;;;2.00;2.00;;;;;20.90;52.71;101053.31;5037272;28;54670;-72
2023/08/05 07:35:28;;;;;;;;;1.25;1.00;;;;;20.85;52.19;101045.81;5037505;28;45253;-72
2023/08/05 07:37:55;;;;;;;;;2.00;2.00;;;;;20.81;52.70;101039.13;5037768;28;45347;-72
2023/08/05 07:40:21;;;;;;;;;2.00;2.00;;;;;20.73;52.18;101036.63;5037867;28;45536;-72
2023/08/05 07:42:48;;;;;;;;;1.00;1.00;;;;;20.26;52.67;100969.97;5037415;28;45798;-72
2023/08/05 07:45:17;;;;;;;;;1.00;1.00;;;;;20.66;52.65;101041.19;5037311;28;45287;-71
2023/08/05 07:47:43;;;;;;;;;1.00;1.00;;;;;20.75;52.88;101053.47;5037459;28;45489;-71
2023/08/05 07:50:10;;;;;;;;;2.00;2.00;;;;;20.41;52.74;100975.22;5037660;28;45187;-72
2023/08/05 07:52:36;;;;;;;;;2.25;2.00;;;;;21.00;52.85;101044.78;5037220;28;46699;-72
2023/08/05 07:55:03;;;;;;;;;0.75;0.75;;;;;20.73;51.94;100963.69;5037350;28;45440;-72
2023/08/05 07:57:28;;;;;;;;;1.00;1.00;;;;;20.86;51.43;100982.63;5036328;28;45480;-72
2023/08/05 07:59:55;;;;;;;;;2.00;1.00;;;;;21.24;51.00;101031.56;5037319;28;45650;-71
2023/08/05 08:02:20;;;;;;;;;0.75;0.75;;;;;21.27;50.92;101035.72;5036920;28;45580;-72
2023/08/05 08:04:48;;;;;;;;;2.00;2.00;;;;;21.22;50.70;101024.66;5037185;28;45484;-72
2023/08/05 08:07:14;;;;;;;;;1.00;1.00;;;;;21.16;50.82;101007.38;5037027;28;45553;-71
2023/08/05 08:09:39;;;;;;;;;1.00;1.00;;;;;21.07;50.51;100999.69;5036364;28;45201;-73
2023/08/05 08:12:05;;;;;;;;;2.00;0.50;;;;;21.05;50.45;101012.59;5036582;28;45604;-71
2023/08/05 08:14:30;;;;;;;;;1.00;1.00;;;;;21.01;50.45;101014.00;5036330;28;45194;-71
2023/08/05 08:16:56;;;;;;;;;1.00;1.00;;;;;20.96;50.73;101007.38;5037119;28;45239;-72
2023/08/05 08:19:22;;;;;;;;;1.00;1.00;;;;;20.66;50.54;100965.53;5035754;28;45266;-72
2023/08/05 08:21:48;;;;;;;;;2.00;2.00;;;;;20.85;50.65;100997.19;5036633;28;46708;-70
2023/08/05 08:24:14;;;;;;;;;3.25;1.00;;;;;20.92;50.85;101008.81;5036632;28;45467;-72
2023/08/05 08:26:39;;;;;;;;;2.00;2.00;;;;;20.88;50.77;101002.16;5036870;28;45349;-72
2023/08/05 08:29:04;;;;;;;;;2.50;2.00;;;;;20.88;50.93;100999.47;5036635;28;45453;-72
2023/08/05 08:31:31;;;;;;;;;2.00;2.00;;;;;20.86;50.97;100998.84;5036331;28;47014;-71
2023/08/05 08:33:57;;;;;;;;;2.50;1.25;;;;;20.87;50.64;100999.66;5036790;28;45313;-72
2023/08/05 08:36:23;;;;;;;;;1.00;1.00;;;;;20.69;51.27;100967.84;5036724;28;45483;-71
2023/08/05 08:38:49;;;;;;;;;4.25;3.00;;;;;20.77;52.07;100988.41;5036766;28;45360;-72
2023/08/05 08:41:14;;;;;;;;;1.25;1.25;;;;;20.87;52.36;100999.66;5036162;28;50911;-71
2023/08/05 08:43:40;;;;;;;;;1.50;1.00;;;;;20.84;52.19;101005.50;5036161;28;46532;-72
2023/08/05 08:46:07;;;;;;;;;1.00;1.00;;;;;20.86;52.28;100998.84;5036632;28;45423;-71
2023/08/05 08:48:36;;;;;;;;;1.00;1.00;;;;;20.84;52.33;101000.91;5036845;28;45271;-72
2023/08/05 08:51:03;;;;;;;;;2.00;2.00;;;;;20.83;51.96;100990.31;5034860;28;48959;-73
2023/08/05 08:53:31;;;;;;;;;2.00;1.75;;;;;20.84;52.01;101011.72;5036394;28;45447;-72
2023/08/05 08:55:56;;;;;;;;;2.00;2.00;;;;;20.77;51.75;100989.25;5034772;28;45530;-71
2023/08/05 08:58:22;;;;;;;;;0.75;0.75;;;;;20.74;51.87;100992.34;5034993;28;45520;-71
2023/08/05 09:00:49;;;;;;;;;3.50;2.50;;;;;20.56;52.00;100948.88;5036099;28;45634;-72
2023/08/05 09:03:16;;;;;;;;;2.75;2.00;;;;;20.72;51.85;100975.53;5036356;28;45294;-71
2023/08/05 09:05:45;;;;;;;;;1.00;1.00;;;;;20.62;51.77;100972.38;5034770;28;45481;-72
2023/08/05 09:08:11;;;;;;;;;0.00;0.00;;;;;20.63;52.20;100976.75;5036487;28;45325;-72
2023/08/05 09:10:39;;;;;;;;;5.50;1.25;;;;;20.55;53.46;100955.31;5036080;28;45725;-71
2023/08/05 09:13:06;;;;;;;;;2.00;1.75;;;;;20.61;53.62;100959.91;5035640;28;45448;-71
2023/08/05 09:15:33;;;;;;;;;3.25;2.25;;;;;20.61;54.25;100946.38;5036089;28;45317;-72
2023/08/05 09:18:00;;;;;;;;;1.00;1.00;;;;;20.68;54.33;100944.56;5018420;28;45545;-72
2023/08/05 09:20:25;;;;;;;;;2.00;2.00;;;;;20.82;54.01;100954.34;5035821;28;46430;-72
2023/08/05 09:22:59;;;;;;;;;2.00;1.00;;;;;20.89;53.54;100940.84;5038688;28;45353;-71
2023/08/05 09:25:24;;;;;;;;;1.50;1.50;;;;;20.94;52.96;100936.47;5039656;28;45408;-72
2023/08/05 09:27:52;;;;;;;;;1.00;1.00;;;;;20.85;51.52;100929.63;5039724;28;45287;-72
2023/08/05 09:30:18;;;;;;;;;1.75;1.75;;;;;20.94;51.63;100936.47;5039414;28;46423;-72
2023/08/05 09:32:45;;;;;;;;;2.00;1.00;;;;;20.95;51.87;100921.91;5039247;28;45434;-72
2023/08/05 09:35:11;;;;;;;;;2.00;2.00;;;;;20.65;51.55;100853.13;5039487;28;45294;-73
2023/08/05 09:37:39;;;;;;;;;2.25;2.25;;;;;20.93;51.07;100894.25;5039666;28;45470;-71
2023/08/05 09:40:15;;;;;;;;;2.00;2.00;;;;;21.15;50.76;100915.66;5039117;28;46618;-72
2023/08/05 09:42:41;;;;;;;;;1.00;1.00;;;;;21.04;50.66;100902.81;5039402;28;45531;-73
2023/08/05 09:45:09;;;;;;;;;2.75;2.00;;;;;21.00;51.24;100896.13;5039208;28;45341;-72
2023/08/05 09:47:36;;;;;;;;;0.75;0.75;;;;;20.98;51.28;100906.31;5039426;28;45361;-71
2023/08/05 09:50:04;;;;;;;;;2.25;2.25;;;;;20.85;52.47;100891.78;5038890;28;46800;-73
2023/08/05 09:52:33;;;;;;;;;2.75;2.00;;;;;20.82;53.05;100894.91;5039114;28;45329;-73
2023/08/05 09:55:05;;;;;;;;;2.00;1.00;;;;;20.81;52.58;100900.47;5039316;28;45422;-74
2023/08/05 09:57:31;;;;;;;;;3.00;2.00;;;;;20.70;53.06;100891.16;5038921;28;45346;-73
2023/08/05 10:00:00;;;;;;;;;2.00;2.00;;;;;20.58;54.12;100858.50;5038634;28;45527;-72
2023/08/05 10:02:26;;;;;;;;;1.00;1.00;;;;;20.62;54.73;100872.41;5039102;28;45396;-72
2023/08/05 10:04:56;;;;;;;;;1.75;1.75;;;;;20.67;54.98;100869.94;5039024;28;45349;-72
2023/08/05 10:07:23;;;;;;;;;1.75;0.75;;;;;20.68;55.47;100868.91;5021129;28;45564;-71
2023/08/05 10:09:50;;;;;;;;;2.00;2.00;;;;;20.59;56.20;100845.81;5038897;28;46251;-72
2023/08/05 10:12:21;;;;;;;;;4.25;4.00;;;;;20.66;55.74;100849.38;5038643;28;45523;-71
2023/08/05 10:14:48;;;;;;;;;3.00;2.00;;;;;20.39;56.87;100812.53;5038443;28;45326;-72
2023/08/05 10:17:14;;;;;;;;;2.00;2.00;;;;;20.52;56.84;100862.03;5038908;28;45638;-71
2023/08/05 10:19:40;;;;;;;;;1.75;1.75;;;;;20.44;56.38;100842.50;5038485;28;46401;-72
2023/08/05 10:22:09;;;;;;;;;2.00;2.00;;;;;20.34;56.64;100830.19;5038540;28;45487;-72
2023/08/05 10:24:53;;;;;;;;;1.00;1.00;;;;;20.44;56.64;100851.44;5038792;28;45461;-72
2023/08/05 10:27:37;;;;;;;;;4.25;1.00;;;;;20.39;57.40;100844.94;5039202;28;45345;-72
2023/08/05 10:30:11;;;;;;;;;2.00;2.00;;;;;20.41;57.64;100851.00;5038336;28;45780;-73
2023/08/05 10:32:52;;;;;;;;;2.00;2.00;;;;;20.47;57.66;100863.69;5037831;28;45456;-74
2023/08/05 10:35:31;;;;;;;;;3.00;3.00;;;;;20.51;57.79;100849.56;5038566;28;45551;-71
2023/08/05 10:38:21;;;;;;;;;1.75;1.75;;;;;20.29;57.40;100802.97;5038515;28;45550;-72
2023/08/05 10:40:51;;;;;;;;;3.00;3.00;;;;;20.48;57.33;100819.44;5038254;28;46736;-71
2023/08/05 10:43:33;;;;;;;;;2.25;2.00;;;;;20.56;57.43;100838.97;5036466;28;45571;-72
2023/08/05 10:45:59;;;;;;;;;1.00;1.00;;;;;20.57;57.51;100823.59;5038338;28;45276;-73
2023/08/05 10:48:30;;;;;;;;;1.75;1.75;;;;;20.64;57.65;100827.13;5037249;28;45367;-72
2023/08/05 10:50:56;;;;;;;;;3.25;3.25;;;;;20.65;57.29;100812.59;5037923;28;47230;-72
2023/08/05 10:53:21;;;;;;;;;1.25;1.25;;;;;20.74;57.27;100805.94;5038050;28;45214;-72
2023/08/05 10:55:50;;;;;;;;;2.00;2.00;;;;;20.85;57.28;100799.91;5038262;28;45242;-71
2023/08/05 10:58:21;;;;;;;;;2.00;2.00;;;;;20.86;56.66;100787.22;5037835;28;45551;-72
2023/08/05 11:00:58;;;;;;;;;2.50;2.50;;;;;20.92;56.95;100773.69;5038040;28;46795;-71
2023/08/05 11:03:56;;;;;;;;;2.67;2.67;;;;;20.98;57.05;100763.06;5037821;28;45368;-73
2023/08/05 11:06:23;;;;;;;;;4.25;1.50;;;;;21.05;56.28;100763.91;5037990;28;45595;-72
2023/08/05 11:08:49;;;;;;;;;1.00;1.00;;;;;21.07;56.36;100761.81;5038190;28;45324;-72
2023/08/05 11:11:14;;;;;;;;;3.50;3.25;;;;;21.09;55.77;100743.50;5037552;28;46656;-72
2023/08/05 11:13:49;;;;;;;;;4.00;3.00;;;;;20.95;55.92;100716.50;5037535;28;45166;-73
2023/08/05 11:16:15;;;;;;;;;3.00;3.00;;;;;21.11;55.62;100730.59;5038048;28;45337;-72
2023/08/05 11:18:43;;;;;;;;;5.00;4.00;;;;;20.65;55.39;100647.81;5038238;28;45257;-73
2023/08/05 11:21:10;;;;;;;;;2.33;2.33;;;;;20.68;55.50;100644.69;5038075;28;46552;-73